El Masnou, Spain
Current Conditions -  °F | °C
As of 4:30 PM on Thursday 23 Oct 2014 (Local Time) from LELL Reporting Station
Clear Clear  
Wind Chill: 73°   Ceiling: Unl
Heat Index: 73°   Visibility: 6mi
Dew Point: 50°   Wind: 8mph
Humidity: 44%   Direction: 100°E
Pressure: 30"   Gusts: NA
Location:  41.48°N, 2.32°E
Report Text: LELL 231430Z 10007KT 060V140 CAVOK 23/10 Q1016
Loading
Personal Weather Stations






























Interactive Weather Map
Tropical Storm Tracking
New forecast layout! Learn more

10-Day Weather Forecast

Advertisements
Track Severe Weather on mobile